Portada
METAR-TAF:

METAR-TAF

Aeropuertos :

Xi'an, China

Aeropuerto Internacional de Xi'an-Xianyang

latitud: 34-26N, longitud: 108-45E, altitud: 479 m

Observación

El informe se hizo hace 16 minutos, a las 11:00 UTC
Viento 4 kt del oeste-suroeste
Temperatura 20°C
Humedad 100%
Presión 1010 hPa
Visibilidad: 3000 m
Escasas nubes a una altura de 4000 ft
Cielo cubierto a una altura de 7000 ft
lluvia ligera, neblina

METAR: ZLXY 291100Z 25002MPS 3000 -RA BR FEW040 OVC070 20/20 Q1010 NOSIG

Hora: 19:16 (11:16 UTC)

Pronóstico

El informe se hizo hace 7 horas y 57 minutos, a las 03:19 UTC
Pronóstico válido del 29 a las 06 UTC al 30 a las 06 UTC
Viento 6 kt del oeste
Visibilidad: 2800 m
lluvia ligera, neblina
Evolucionando progresivamente
del 29 a las 08 UTC al 29 a las 09 UTC
Visibilidad: 5000 m
neblina

TAF: ZLXY 290319Z 2906/3006 27003MPS 2800 -RA BR NSC TX27/2907Z TN20/2921Z BECMG 2908/2909 5000 BR

Observaciones y pronósticos meteorológicos de más de 4000 aeropuertos (mensajes METAR y TAF).

Los puntos amarillos y rojos representan las estaciones disponibles.

Ponga el ratón en el punto deseado para ver el nombre de la estación.

Haga clic para ver las observaciones y los pronósticos meteorológicos.

Para cambiar el mapa : haga clic en los botones verdes con una cruz de color negro para hacer un zoom, en el botón verde con un guión para alejar o en las flechas verdes para mapas adyacentes.


METAR-TAF: